GZMV KMFD-KCLE
Flight info
| Callsign | GZMV |
|---|---|
| Flight time | 1h 17m |
| Altitude | 5000 |
| Route | KCAK |
| Aircraft | BE58/L-SDFGRY/C |
Departure
| Time | 2026-04-23 19:59 |
|---|---|
| Airport | Mansfield Lahm Regional Airport (KMFD) |
Arrival
| Time | 2026-04-23 21:17 |
|---|---|
| Airport | Cleveland Hopkins International Airport (KCLE) |
| Time | Latitude | Longitude | Altitude | Speed | Heading |
|---|---|---|---|---|---|
| 2026-04-23 19:48 | 40.81467 | -82.51582 | 1294 ft | 0 kts | 314° |
| 2026-04-23 19:54 | 40.81473 | -82.51589 | 1294 ft | 3 kts | 317° |
| 2026-04-23 19:54 | 40.81488 | -82.51638 | 1294 ft | 8 kts | 218° |
| 2026-04-23 19:55 | 40.81435 | -82.51699 | 1294 ft | 12 kts | 226° |
| 2026-04-23 19:55 | 40.81367 | -82.51797 | 1292 ft | 16 kts | 227° |
| 2026-04-23 19:55 | 40.81279 | -82.51920 | 1289 ft | 19 kts | 226° |
| 2026-04-23 19:55 | 40.81145 | -82.52110 | 1283 ft | 23 kts | 225° |
| 2026-04-23 19:56 | 40.81066 | -82.52218 | 1278 ft | 25 kts | 229° |
| 2026-04-23 19:56 | 40.81088 | -82.52376 | 1272 ft | 0 kts | 320° |
| 2026-04-23 19:56 | 40.81101 | -82.52392 | 1272 ft | 5 kts | 317° |
| 2026-04-23 19:56 | 40.81107 | -82.52399 | 1272 ft | 4 kts | 317° |
| 2026-04-23 19:57 | 40.81163 | -82.52447 | 1271 ft | 11 kts | 359° |
| 2026-04-23 19:57 | 40.81194 | -82.52426 | 1272 ft | 0 kts | 43° |
| 2026-04-23 19:58 | 40.81195 | -82.52425 | 1272 ft | 3 kts | 43° |
| 2026-04-23 19:58 | 40.81411 | -82.52122 | 1286 ft | 84 kts | 46° |
| 2026-04-23 19:58 | 40.81935 | -82.51402 | 1320 ft | 123 kts | 46° |
| 2026-04-23 19:59 | 40.82545 | -82.50561 | 1630 ft | 132 kts | 46° |
| 2026-04-23 19:59 | 40.83210 | -82.49700 | 1960 ft | 139 kts | 44° |
| 2026-04-23 19:59 | 40.83919 | -82.48815 | 2279 ft | 142 kts | 43° |
| 2026-04-23 19:59 | 40.84463 | -82.47748 | 2571 ft | 144 kts | 77° |
| 2026-04-23 20:00 | 40.84373 | -82.46464 | 2879 ft | 142 kts | 111° |
| 2026-04-23 20:00 | 40.84058 | -82.45259 | 3275 ft | 137 kts | 109° |
| 2026-04-23 20:00 | 40.83706 | -82.44084 | 3566 ft | 140 kts | 114° |
| 2026-04-23 20:00 | 40.83389 | -82.42854 | 3859 ft | 143 kts | 102° |
| 2026-04-23 20:01 | 40.83277 | -82.41552 | 4151 ft | 145 kts | 91° |
| 2026-04-23 20:01 | 40.83286 | -82.40215 | 4444 ft | 146 kts | 87° |
| 2026-04-23 20:01 | 40.83333 | -82.38879 | 4733 ft | 147 kts | 86° |
| 2026-04-23 20:01 | 40.83392 | -82.37534 | 5018 ft | 148 kts | 85° |
| 2026-04-23 20:02 | 40.83481 | -82.36071 | 4989 ft | 170 kts | 84° |
| 2026-04-23 20:02 | 40.83664 | -82.34470 | 5002 ft | 177 kts | 81° |
| 2026-04-23 20:02 | 40.83840 | -82.32880 | 5001 ft | 177 kts | 82° |
| 2026-04-23 20:02 | 40.83998 | -82.31268 | 5000 ft | 176 kts | 83° |
| 2026-04-23 20:03 | 40.84147 | -82.29660 | 5000 ft | 176 kts | 83° |
| 2026-04-23 20:03 | 40.84292 | -82.28069 | 5000 ft | 175 kts | 83° |
| 2026-04-23 20:03 | 40.84435 | -82.26479 | 5003 ft | 175 kts | 83° |
| 2026-04-23 20:03 | 40.84628 | -82.24335 | 5006 ft | 175 kts | 83° |
| 2026-04-23 20:04 | 40.84723 | -82.23274 | 5010 ft | 175 kts | 83° |
| 2026-04-23 20:04 | 40.84864 | -82.21692 | 5009 ft | 175 kts | 83° |
| 2026-04-23 20:04 | 40.85007 | -82.20098 | 5009 ft | 175 kts | 83° |
| 2026-04-23 20:04 | 40.85149 | -82.18499 | 5010 ft | 175 kts | 83° |
| 2026-04-23 20:05 | 40.85291 | -82.16911 | 5010 ft | 174 kts | 83° |
| 2026-04-23 20:05 | 40.85432 | -82.15317 | 5011 ft | 174 kts | 83° |
| 2026-04-23 20:05 | 40.85573 | -82.13731 | 5011 ft | 174 kts | 83° |
| 2026-04-23 20:05 | 40.85714 | -82.12138 | 5011 ft | 174 kts | 83° |
| 2026-04-23 20:06 | 40.85854 | -82.10555 | 5010 ft | 174 kts | 83° |
| 2026-04-23 20:06 | 40.85995 | -82.08960 | 5009 ft | 175 kts | 83° |
| 2026-04-23 20:06 | 40.86135 | -82.07372 | 5007 ft | 175 kts | 83° |
| 2026-04-23 20:06 | 40.86275 | -82.05787 | 5003 ft | 175 kts | 83° |
| 2026-04-23 20:07 | 40.86427 | -82.04189 | 5006 ft | 175 kts | 81° |
| 2026-04-23 20:07 | 40.86575 | -82.02585 | 5009 ft | 175 kts | 82° |
| 2026-04-23 20:07 | 40.86726 | -82.00992 | 5009 ft | 174 kts | 82° |
| 2026-04-23 20:07 | 40.86885 | -81.99412 | 5010 ft | 173 kts | 81° |
| 2026-04-23 20:08 | 40.87053 | -81.97842 | 5005 ft | 173 kts | 81° |
| 2026-04-23 20:08 | 40.87230 | -81.96273 | 5000 ft | 173 kts | 80° |
| 2026-04-23 20:08 | 40.87417 | -81.94713 | 4993 ft | 173 kts | 80° |
| 2026-04-23 20:08 | 40.87614 | -81.93150 | 4983 ft | 173 kts | 79° |
| 2026-04-23 20:09 | 40.87822 | -81.91582 | 4972 ft | 173 kts | 79° |
| 2026-04-23 20:09 | 40.88042 | -81.90008 | 4964 ft | 174 kts | 78° |
| 2026-04-23 20:09 | 40.88269 | -81.88447 | 4957 ft | 173 kts | 78° |
| 2026-04-23 20:09 | 40.88509 | -81.86876 | 4949 ft | 173 kts | 77° |
| 2026-04-23 20:10 | 40.88755 | -81.85327 | 4939 ft | 174 kts | 77° |
| 2026-04-23 20:10 | 40.89012 | -81.83773 | 4933 ft | 173 kts | 76° |
| 2026-04-23 20:10 | 40.89283 | -81.82204 | 4925 ft | 173 kts | 76° |
| 2026-04-23 20:10 | 40.89558 | -81.80668 | 4919 ft | 173 kts | 75° |
| 2026-04-23 20:11 | 40.89846 | -81.79115 | 4913 ft | 173 kts | 75° |
| 2026-04-23 20:11 | 40.90140 | -81.77579 | 4908 ft | 173 kts | 74° |
| 2026-04-23 20:11 | 40.90445 | -81.76050 | 4903 ft | 173 kts | 73° |
| 2026-04-23 20:11 | 40.90866 | -81.74007 | 4895 ft | 173 kts | 73° |
| 2026-04-23 20:12 | 40.91087 | -81.72977 | 4890 ft | 172 kts | 72° |
| 2026-04-23 20:12 | 40.91418 | -81.71466 | 4882 ft | 173 kts | 72° |
| 2026-04-23 20:12 | 40.91759 | -81.69952 | 4865 ft | 173 kts | 72° |
| 2026-04-23 20:12 | 40.92116 | -81.68422 | 4851 ft | 173 kts | 71° |
| 2026-04-23 20:13 | 40.92479 | -81.66911 | 4835 ft | 173 kts | 71° |
| 2026-04-23 20:13 | 40.92850 | -81.65407 | 4827 ft | 172 kts | 70° |
| 2026-04-23 20:13 | 40.93232 | -81.63902 | 4821 ft | 172 kts | 69° |
| 2026-04-23 20:13 | 40.93911 | -81.62627 | 4809 ft | 170 kts | 39° |
| 2026-04-23 20:14 | 40.94756 | -81.61630 | 4951 ft | 161 kts | 39° |
| 2026-04-23 20:14 | 40.95576 | -81.60630 | 4961 ft | 163 kts | 49° |
| 2026-04-23 20:14 | 40.96127 | -81.59292 | 4970 ft | 165 kts | 64° |
| 2026-04-23 20:14 | 40.96574 | -81.57877 | 4970 ft | 167 kts | 66° |
| 2026-04-23 20:15 | 40.96998 | -81.56457 | 4969 ft | 167 kts | 67° |
| 2026-04-23 20:15 | 40.97419 | -81.55017 | 4968 ft | 168 kts | 67° |
| 2026-04-23 20:15 | 40.97837 | -81.53574 | 4970 ft | 168 kts | 67° |
| 2026-04-23 20:15 | 40.98256 | -81.52126 | 4970 ft | 168 kts | 67° |
| 2026-04-23 20:16 | 40.98671 | -81.50686 | 4970 ft | 168 kts | 67° |
| 2026-04-23 20:16 | 40.99087 | -81.49246 | 4971 ft | 169 kts | 67° |
| 2026-04-23 20:16 | 40.99509 | -81.47780 | 4970 ft | 169 kts | 67° |
| 2026-04-23 20:16 | 40.99928 | -81.46326 | 4971 ft | 169 kts | 68° |
| 2026-04-23 20:17 | 41.00345 | -81.44878 | 4970 ft | 169 kts | 67° |
| 2026-04-23 20:17 | 41.00760 | -81.43434 | 4970 ft | 169 kts | 67° |
| 2026-04-23 20:17 | 41.01185 | -81.41957 | 4974 ft | 170 kts | 67° |
| 2026-04-23 20:17 | 41.01604 | -81.40498 | 4975 ft | 170 kts | 67° |
| 2026-04-23 20:18 | 41.02018 | -81.39056 | 4975 ft | 170 kts | 67° |
| 2026-04-23 20:18 | 41.02441 | -81.37582 | 4975 ft | 170 kts | 67° |
| 2026-04-23 20:18 | 41.02858 | -81.36128 | 4974 ft | 170 kts | 67° |
| 2026-04-23 20:18 | 41.03276 | -81.34670 | 4974 ft | 170 kts | 68° |
| 2026-04-23 20:19 | 41.03695 | -81.33209 | 4971 ft | 169 kts | 68° |
| 2026-04-23 20:19 | 41.04113 | -81.31750 | 4972 ft | 168 kts | 68° |
| 2026-04-23 20:19 | 41.04525 | -81.30311 | 4972 ft | 168 kts | 68° |
| 2026-04-23 20:19 | 41.04942 | -81.28853 | 4973 ft | 168 kts | 68° |
| 2026-04-23 20:20 | 41.05355 | -81.27408 | 4973 ft | 167 kts | 68° |
| 2026-04-23 20:20 | 41.05764 | -81.25977 | 4974 ft | 167 kts | 68° |
| 2026-04-23 20:20 | 41.05975 | -81.24472 | 4970 ft | 168 kts | 99° |
| 2026-04-23 20:20 | 41.05415 | -81.23176 | 4972 ft | 165 kts | 143° |
| 2026-04-23 20:21 | 41.04356 | -81.22738 | 4972 ft | 159 kts | 188° |
| 2026-04-23 20:21 | 41.03414 | -81.23373 | 4978 ft | 153 kts | 234° |
| 2026-04-23 20:21 | 41.03025 | -81.24647 | 4982 ft | 151 kts | 259° |
| 2026-04-23 20:21 | 41.02798 | -81.26013 | 4944 ft | 153 kts | 261° |
| 2026-04-23 20:22 | 41.02644 | -81.27455 | 4652 ft | 163 kts | 266° |
| 2026-04-23 20:22 | 41.02115 | -81.28745 | 4245 ft | 178 kts | 210° |
| 2026-04-23 20:22 | 41.01184 | -81.29706 | 4152 ft | 166 kts | 234° |
| 2026-04-23 20:22 | 41.00508 | -81.30928 | 4011 ft | 162 kts | 234° |
| 2026-04-23 20:23 | 40.99835 | -81.32150 | 3713 ft | 169 kts | 233° |
| 2026-04-23 20:23 | 40.99033 | -81.33257 | 3455 ft | 163 kts | 227° |
| 2026-04-23 20:23 | 40.98264 | -81.34358 | 3159 ft | 160 kts | 230° |
| 2026-04-23 20:23 | 40.97594 | -81.35469 | 2972 ft | 148 kts | 234° |
| 2026-04-23 20:24 | 40.96968 | -81.36459 | 2771 ft | 134 kts | 226° |
| 2026-04-23 20:24 | 40.96338 | -81.37326 | 2538 ft | 124 kts | 228° |
| 2026-04-23 20:24 | 40.95748 | -81.38131 | 2293 ft | 118 kts | 229° |
| 2026-04-23 20:24 | 40.95227 | -81.38933 | 2096 ft | 112 kts | 234° |
| 2026-04-23 20:25 | 40.94724 | -81.39709 | 1890 ft | 111 kts | 229° |
| 2026-04-23 20:25 | 40.94188 | -81.40403 | 1754 ft | 104 kts | 226° |
| 2026-04-23 20:25 | 40.93712 | -81.41108 | 1624 ft | 101 kts | 232° |
| 2026-04-23 20:25 | 40.93269 | -81.41807 | 1543 ft | 99 kts | 229° |
| 2026-04-23 20:26 | 40.92778 | -81.42454 | 1453 ft | 100 kts | 227° |
| 2026-04-23 20:26 | 40.92310 | -81.43149 | 1350 ft | 104 kts | 227° |
| 2026-04-23 20:26 | 40.91808 | -81.43868 | 1494 ft | 108 kts | 232° |
| 2026-04-23 20:26 | 40.91301 | -81.44587 | 1817 ft | 105 kts | 225° |
| 2026-04-23 20:27 | 40.90758 | -81.45139 | 2185 ft | 107 kts | 221° |
| 2026-04-23 20:27 | 40.90215 | -81.45898 | 2431 ft | 114 kts | 237° |
| 2026-04-23 20:27 | 40.89749 | -81.46654 | 2876 ft | 105 kts | 233° |
| 2026-04-23 20:27 | 40.89196 | -81.47440 | 2927 ft | 131 kts | 227° |
| 2026-04-23 20:28 | 40.88519 | -81.48328 | 3010 ft | 148 kts | 227° |
| 2026-04-23 20:28 | 40.87805 | -81.49344 | 3002 ft | 149 kts | 234° |
| 2026-04-23 20:28 | 40.87149 | -81.50374 | 3045 ft | 143 kts | 231° |
| 2026-04-23 20:28 | 40.86440 | -81.51310 | 3024 ft | 144 kts | 220° |
| 2026-04-23 20:29 | 40.85582 | -81.51980 | 3029 ft | 143 kts | 211° |
| 2026-04-23 20:29 | 40.84947 | -81.52924 | 3035 ft | 139 kts | 242° |
| 2026-04-23 20:29 | 40.84202 | -81.53721 | 3031 ft | 142 kts | 198° |
| 2026-04-23 20:29 | 40.83229 | -81.53560 | 3030 ft | 148 kts | 153° |
| 2026-04-23 20:30 | 40.82451 | -81.52672 | 3026 ft | 149 kts | 139° |
| 2026-04-23 20:30 | 40.80958 | -81.50738 | 3021 ft | 151 kts | 138° |
| 2026-04-23 20:30 | 40.80212 | -81.49762 | 3020 ft | 151 kts | 138° |
| 2026-04-23 20:31 | 40.79470 | -81.48792 | 3018 ft | 151 kts | 137° |
| 2026-04-23 20:31 | 40.78718 | -81.47811 | 3015 ft | 151 kts | 138° |
| 2026-04-23 20:31 | 40.77977 | -81.46836 | 3017 ft | 151 kts | 137° |
| 2026-04-23 20:31 | 40.77224 | -81.45848 | 3022 ft | 153 kts | 138° |
| 2026-04-23 20:32 | 40.76465 | -81.44849 | 3018 ft | 156 kts | 138° |
| 2026-04-23 20:32 | 40.75691 | -81.43830 | 3015 ft | 157 kts | 138° |
| 2026-04-23 20:32 | 40.74915 | -81.42815 | 3012 ft | 159 kts | 139° |
| 2026-04-23 20:32 | 40.74011 | -81.41989 | 3013 ft | 157 kts | 153° |
| 2026-04-23 20:33 | 40.73053 | -81.41270 | 3016 ft | 158 kts | 153° |
| 2026-04-23 20:33 | 40.72101 | -81.40563 | 3014 ft | 158 kts | 153° |
| 2026-04-23 20:33 | 40.71139 | -81.39852 | 3015 ft | 158 kts | 155° |
| 2026-04-23 20:33 | 40.70091 | -81.39704 | 3019 ft | 152 kts | 200° |
| 2026-04-23 20:34 | 40.69304 | -81.40556 | 3026 ft | 147 kts | 245° |
| 2026-04-23 20:34 | 40.69241 | -81.41863 | 3028 ft | 148 kts | 289° |
| 2026-04-23 20:34 | 40.69942 | -81.42844 | 3028 ft | 153 kts | 334° |
| 2026-04-23 20:34 | 40.71001 | -81.43013 | 3032 ft | 158 kts | 359° |
| 2026-04-23 20:35 | 40.72089 | -81.43100 | 3024 ft | 157 kts | 352° |
| 2026-04-23 20:35 | 40.73183 | -81.43172 | 3021 ft | 158 kts | 356° |
| 2026-04-23 20:35 | 40.74292 | -81.43159 | 3022 ft | 158 kts | 2° |
| 2026-04-23 20:35 | 40.75278 | -81.42519 | 3022 ft | 163 kts | 46° |
| 2026-04-23 20:36 | 40.75679 | -81.41155 | 3024 ft | 164 kts | 91° |
| 2026-04-23 20:36 | 40.75280 | -81.39791 | 3026 ft | 161 kts | 135° |
| 2026-04-23 20:36 | 40.74322 | -81.39162 | 3029 ft | 155 kts | 175° |
| 2026-04-23 20:36 | 40.73240 | -81.39067 | 3027 ft | 155 kts | 181° |
| 2026-04-23 20:37 | 40.72158 | -81.39020 | 3023 ft | 156 kts | 181° |
| 2026-04-23 20:37 | 40.71073 | -81.38974 | 3022 ft | 156 kts | 181° |
| 2026-04-23 20:37 | 40.69972 | -81.38927 | 3031 ft | 158 kts | 181° |
| 2026-04-23 20:37 | 40.68876 | -81.38879 | 3031 ft | 160 kts | 181° |
| 2026-04-23 20:38 | 40.67834 | -81.39237 | 3028 ft | 155 kts | 220° |
| 2026-04-23 20:38 | 40.67318 | -81.40431 | 3032 ft | 152 kts | 265° |
| 2026-04-23 20:38 | 40.67628 | -81.41727 | 3030 ft | 155 kts | 309° |
| 2026-04-23 20:38 | 40.68579 | -81.42356 | 3031 ft | 160 kts | 351° |
| 2026-04-23 20:39 | 40.69651 | -81.42731 | 3032 ft | 159 kts | 337° |
| 2026-04-23 20:39 | 40.70734 | -81.43088 | 3030 ft | 161 kts | 349° |
| 2026-04-23 20:39 | 40.71854 | -81.43214 | 3024 ft | 163 kts | 355° |
| 2026-04-23 20:39 | 40.72989 | -81.43227 | 3022 ft | 163 kts | 358° |
| 2026-04-23 20:40 | 40.74130 | -81.43191 | 3021 ft | 163 kts | 359° |
| 2026-04-23 20:40 | 40.75187 | -81.42741 | 3020 ft | 167 kts | 37° |
| 2026-04-23 20:40 | 40.75754 | -81.41421 | 3021 ft | 168 kts | 82° |
| 2026-04-23 20:40 | 40.75497 | -81.39966 | 3022 ft | 166 kts | 126° |
| 2026-04-23 20:41 | 40.74578 | -81.39137 | 3024 ft | 161 kts | 170° |
| 2026-04-23 20:41 | 40.73453 | -81.38998 | 3024 ft | 161 kts | 181° |
| 2026-04-23 20:41 | 40.72338 | -81.38943 | 3021 ft | 161 kts | 181° |
| 2026-04-23 20:41 | 40.71211 | -81.38887 | 3022 ft | 161 kts | 181° |
| 2026-04-23 20:42 | 40.70095 | -81.38833 | 3028 ft | 162 kts | 181° |
| 2026-04-23 20:42 | 40.68955 | -81.38775 | 3026 ft | 162 kts | 181° |
| 2026-04-23 20:42 | 40.67833 | -81.38763 | 3020 ft | 161 kts | 190° |
| 2026-04-23 20:42 | 40.66897 | -81.39465 | 3024 ft | 155 kts | 235° |
| 2026-04-23 20:43 | 40.66651 | -81.40793 | 3028 ft | 154 kts | 279° |
| 2026-04-23 20:43 | 40.67220 | -81.41955 | 3027 ft | 157 kts | 323° |
| 2026-04-23 20:43 | 40.68276 | -81.42305 | 3029 ft | 162 kts | 356° |
| 2026-04-23 20:43 | 40.69370 | -81.42600 | 3029 ft | 158 kts | 334° |
| 2026-04-23 20:44 | 40.70432 | -81.43031 | 3026 ft | 161 kts | 347° |
| 2026-04-23 20:44 | 40.71545 | -81.43200 | 3026 ft | 162 kts | 354° |
| 2026-04-23 20:44 | 40.72683 | -81.43233 | 3026 ft | 163 kts | 358° |
| 2026-04-23 20:44 | 40.73821 | -81.43204 | 3022 ft | 163 kts | 359° |
| 2026-04-23 20:45 | 40.74947 | -81.43044 | 3017 ft | 166 kts | 19° |
| 2026-04-23 20:45 | 40.75778 | -81.42036 | 3020 ft | 169 kts | 63° |
| 2026-04-23 20:45 | 40.75875 | -81.40524 | 3023 ft | 168 kts | 108° |
| 2026-04-23 20:45 | 40.75185 | -81.39355 | 3021 ft | 163 kts | 153° |
| 2026-04-23 20:46 | 40.74099 | -81.39092 | 3029 ft | 158 kts | 186° |
| 2026-04-23 20:46 | 40.72999 | -81.39239 | 3024 ft | 159 kts | 189° |
| 2026-04-23 20:46 | 40.71901 | -81.39379 | 3022 ft | 159 kts | 188° |
| 2026-04-23 20:46 | 40.70808 | -81.39534 | 3026 ft | 159 kts | 190° |
| 2026-04-23 20:47 | 40.69691 | -81.39732 | 3024 ft | 160 kts | 194° |
| 2026-04-23 20:47 | 40.68807 | -81.40505 | 3025 ft | 155 kts | 238° |
| 2026-04-23 20:47 | 40.68628 | -81.41864 | 3024 ft | 154 kts | 283° |
| 2026-04-23 20:47 | 40.69261 | -81.42976 | 3022 ft | 158 kts | 327° |
| 2026-04-23 20:48 | 40.70341 | -81.43244 | 3028 ft | 162 kts | 359° |
| 2026-04-23 20:48 | 40.71471 | -81.43272 | 3025 ft | 162 kts | 356° |
| 2026-04-23 20:48 | 40.72608 | -81.43264 | 3024 ft | 163 kts | 358° |
| 2026-04-23 20:48 | 40.73740 | -81.43235 | 3021 ft | 163 kts | 358° |
| 2026-04-23 20:49 | 40.74884 | -81.43208 | 3019 ft | 163 kts | 0° |
| 2026-04-23 20:49 | 40.75908 | -81.42585 | 3018 ft | 169 kts | 45° |
| 2026-04-23 20:49 | 40.76350 | -81.41177 | 3020 ft | 170 kts | 89° |
| 2026-04-23 20:49 | 40.75963 | -81.39752 | 3021 ft | 167 kts | 134° |
| 2026-04-23 20:50 | 40.74971 | -81.39072 | 3022 ft | 161 kts | 176° |
| 2026-04-23 20:50 | 40.73856 | -81.39105 | 3022 ft | 160 kts | 187° |
| 2026-04-23 20:50 | 40.72752 | -81.39231 | 3020 ft | 160 kts | 188° |
| 2026-04-23 20:50 | 40.71627 | -81.39365 | 3021 ft | 160 kts | 188° |
| 2026-04-23 20:51 | 40.70515 | -81.39495 | 3022 ft | 161 kts | 188° |
| 2026-04-23 20:51 | 40.69411 | -81.39676 | 3016 ft | 160 kts | 201° |
| 2026-04-23 20:51 | 40.68612 | -81.40595 | 3026 ft | 155 kts | 246° |
| 2026-04-23 20:51 | 40.68573 | -81.41983 | 3024 ft | 155 kts | 291° |
| 2026-04-23 20:52 | 40.69678 | -81.43108 | 3025 ft | 161 kts | 349° |
| 2026-04-23 20:52 | 40.70428 | -81.43133 | 3028 ft | 163 kts | 0° |
| 2026-04-23 20:52 | 40.71550 | -81.43018 | 3025 ft | 164 kts | 2° |
| 2026-04-23 20:52 | 40.72695 | -81.42885 | 3020 ft | 164 kts | 2° |
| 2026-04-23 20:53 | 40.73831 | -81.42752 | 3017 ft | 164 kts | 2° |
| 2026-04-23 20:53 | 40.74973 | -81.42614 | 3016 ft | 164 kts | 2° |
| 2026-04-23 20:53 | 40.76102 | -81.42481 | 3020 ft | 164 kts | 2° |
| 2026-04-23 20:53 | 40.77253 | -81.42351 | 3021 ft | 164 kts | 2° |
| 2026-04-23 20:54 | 40.78381 | -81.42227 | 3020 ft | 164 kts | 2° |
| 2026-04-23 20:54 | 40.79514 | -81.42274 | 3019 ft | 160 kts | 338° |
| 2026-04-23 20:54 | 40.80339 | -81.43173 | 3022 ft | 156 kts | 307° |
| 2026-04-23 20:54 | 40.80997 | -81.44337 | 3020 ft | 157 kts | 305° |
| 2026-04-23 20:55 | 40.81647 | -81.45477 | 3266 ft | 149 kts | 306° |
| 2026-04-23 20:55 | 40.82304 | -81.46504 | 3615 ft | 146 kts | 310° |
| 2026-04-23 20:55 | 40.82959 | -81.47488 | 3991 ft | 141 kts | 309° |
| 2026-04-23 20:55 | 40.83759 | -81.48791 | 4500 ft | 136 kts | 308° |
| 2026-04-23 20:56 | 40.84156 | -81.49445 | 4670 ft | 139 kts | 309° |
| 2026-04-23 20:56 | 40.84772 | -81.50425 | 4939 ft | 143 kts | 308° |
| 2026-04-23 20:56 | 40.85449 | -81.51479 | 4994 ft | 158 kts | 310° |
| 2026-04-23 20:56 | 40.86126 | -81.52721 | 4983 ft | 171 kts | 303° |
| 2026-04-23 20:57 | 40.86826 | -81.54038 | 4981 ft | 179 kts | 304° |
| 2026-04-23 20:57 | 40.87569 | -81.55381 | 4981 ft | 184 kts | 306° |
| 2026-04-23 20:57 | 40.88347 | -81.56747 | 4978 ft | 187 kts | 306° |
| 2026-04-23 20:57 | 40.89138 | -81.58110 | 4976 ft | 188 kts | 307° |
| 2026-04-23 20:58 | 40.89935 | -81.59473 | 4991 ft | 188 kts | 307° |
| 2026-04-23 20:58 | 40.90720 | -81.60802 | 4990 ft | 179 kts | 307° |
| 2026-04-23 20:58 | 40.91473 | -81.62075 | 4990 ft | 172 kts | 307° |
| 2026-04-23 20:58 | 40.92200 | -81.63303 | 4993 ft | 168 kts | 308° |
| 2026-04-23 20:59 | 40.92916 | -81.64512 | 4990 ft | 165 kts | 308° |
| 2026-04-23 20:59 | 40.93619 | -81.65697 | 4995 ft | 163 kts | 307° |
| 2026-04-23 20:59 | 40.94322 | -81.66885 | 4996 ft | 162 kts | 307° |
| 2026-04-23 20:59 | 40.95013 | -81.68056 | 4996 ft | 161 kts | 306° |
| 2026-04-23 21:00 | 40.95698 | -81.69217 | 4996 ft | 161 kts | 306° |
| 2026-04-23 21:00 | 40.96388 | -81.70386 | 4997 ft | 161 kts | 306° |
| 2026-04-23 21:00 | 40.97077 | -81.71550 | 4995 ft | 160 kts | 306° |
| 2026-04-23 21:00 | 40.97764 | -81.72711 | 4995 ft | 160 kts | 306° |
| 2026-04-23 21:01 | 40.98450 | -81.73872 | 4995 ft | 160 kts | 306° |
| 2026-04-23 21:01 | 40.99132 | -81.75023 | 4995 ft | 160 kts | 307° |
| 2026-04-23 21:01 | 40.99823 | -81.76191 | 4991 ft | 160 kts | 307° |
| 2026-04-23 21:01 | 41.00508 | -81.77349 | 4994 ft | 160 kts | 307° |
| 2026-04-23 21:02 | 41.01192 | -81.78507 | 4991 ft | 160 kts | 307° |
| 2026-04-23 21:02 | 41.01876 | -81.79664 | 4995 ft | 160 kts | 307° |
| 2026-04-23 21:02 | 41.02561 | -81.80823 | 5001 ft | 160 kts | 306° |
| 2026-04-23 21:02 | 41.03251 | -81.81992 | 5001 ft | 160 kts | 306° |
| 2026-04-23 21:03 | 41.03933 | -81.83147 | 5005 ft | 160 kts | 306° |
| 2026-04-23 21:03 | 41.04618 | -81.84309 | 5006 ft | 160 kts | 306° |
| 2026-04-23 21:03 | 41.05306 | -81.85476 | 5006 ft | 160 kts | 306° |
| 2026-04-23 21:03 | 41.05989 | -81.86633 | 5009 ft | 160 kts | 306° |
| 2026-04-23 21:04 | 41.06672 | -81.87793 | 5006 ft | 160 kts | 306° |
| 2026-04-23 21:04 | 41.07355 | -81.88953 | 5005 ft | 160 kts | 306° |
| 2026-04-23 21:04 | 41.08041 | -81.90117 | 5007 ft | 160 kts | 306° |
| 2026-04-23 21:04 | 41.08728 | -81.91284 | 5003 ft | 160 kts | 306° |
| 2026-04-23 21:05 | 41.09408 | -81.92441 | 5011 ft | 160 kts | 306° |
| 2026-04-23 21:05 | 41.10100 | -81.93617 | 5006 ft | 160 kts | 306° |
| 2026-04-23 21:05 | 41.10781 | -81.94774 | 5008 ft | 160 kts | 306° |
| 2026-04-23 21:05 | 41.11472 | -81.95952 | 5016 ft | 161 kts | 306° |
| 2026-04-23 21:06 | 41.12160 | -81.97121 | 5000 ft | 161 kts | 306° |
| 2026-04-23 21:06 | 41.12848 | -81.98292 | 4996 ft | 160 kts | 306° |
| 2026-04-23 21:06 | 41.13528 | -81.99451 | 4991 ft | 160 kts | 306° |
| 2026-04-23 21:06 | 41.14206 | -82.00607 | 4993 ft | 160 kts | 306° |
| 2026-04-23 21:07 | 41.14898 | -82.01787 | 4986 ft | 160 kts | 306° |
| 2026-04-23 21:07 | 41.15581 | -82.02952 | 4984 ft | 160 kts | 306° |
| 2026-04-23 21:07 | 41.16260 | -82.04110 | 4981 ft | 160 kts | 306° |
| 2026-04-23 21:07 | 41.16942 | -82.05273 | 4994 ft | 160 kts | 306° |
| 2026-04-23 21:08 | 41.17634 | -82.06455 | 4982 ft | 162 kts | 306° |
| 2026-04-23 21:08 | 41.18323 | -82.07631 | 4986 ft | 161 kts | 306° |
| 2026-04-23 21:08 | 41.19011 | -82.08806 | 4988 ft | 161 kts | 306° |
| 2026-04-23 21:08 | 41.19695 | -82.09975 | 4990 ft | 161 kts | 306° |
| 2026-04-23 21:09 | 41.20383 | -82.11153 | 4990 ft | 161 kts | 306° |
| 2026-04-23 21:09 | 41.21070 | -82.12328 | 4986 ft | 161 kts | 306° |
| 2026-04-23 21:09 | 41.21872 | -82.13361 | 4990 ft | 163 kts | 333° |
| 2026-04-23 21:09 | 41.23006 | -82.13417 | 5004 ft | 170 kts | 17° |
| 2026-04-23 21:10 | 41.23950 | -82.12479 | 5004 ft | 174 kts | 46° |
| 2026-04-23 21:10 | 41.24748 | -82.11274 | 4992 ft | 175 kts | 48° |
| 2026-04-23 21:10 | 41.25539 | -82.10027 | 4862 ft | 176 kts | 49° |
| 2026-04-23 21:10 | 41.26303 | -82.08731 | 4558 ft | 181 kts | 49° |
| 2026-04-23 21:11 | 41.27092 | -82.07431 | 4255 ft | 182 kts | 48° |
| 2026-04-23 21:11 | 41.27936 | -82.06190 | 4037 ft | 178 kts | 43° |
| 2026-04-23 21:11 | 41.28801 | -82.05042 | 3895 ft | 170 kts | 42° |
| 2026-04-23 21:11 | 41.29572 | -82.03968 | 3767 ft | 149 kts | 46° |
| 2026-04-23 21:12 | 41.30196 | -82.02919 | 3551 ft | 137 kts | 52° |
| 2026-04-23 21:12 | 41.30718 | -82.01953 | 3459 ft | 121 kts | 52° |
| 2026-04-23 21:12 | 41.31327 | -82.00745 | 3231 ft | 118 kts | 53° |
| 2026-04-23 21:12 | 41.31669 | -82.00166 | 3184 ft | 120 kts | 48° |
| 2026-04-23 21:13 | 41.32237 | -81.99323 | 3112 ft | 124 kts | 43° |
| 2026-04-23 21:13 | 41.32868 | -81.98474 | 3011 ft | 128 kts | 38° |
| 2026-04-23 21:13 | 41.33506 | -81.97628 | 2907 ft | 131 kts | 46° |
| 2026-04-23 21:13 | 41.34067 | -81.96661 | 2775 ft | 135 kts | 51° |
| 2026-04-23 21:14 | 41.34645 | -81.95630 | 2563 ft | 138 kts | 50° |
| 2026-04-23 21:14 | 41.35257 | -81.94667 | 2307 ft | 138 kts | 45° |
| 2026-04-23 21:14 | 41.35901 | -81.93722 | 2047 ft | 134 kts | 44° |
| 2026-04-23 21:14 | 41.36514 | -81.92782 | 1789 ft | 135 kts | 47° |
| 2026-04-23 21:15 | 41.37106 | -81.91840 | 1555 ft | 130 kts | 44° |
| 2026-04-23 21:15 | 41.37702 | -81.90994 | 1379 ft | 121 kts | 46° |
| 2026-04-23 21:15 | 41.38208 | -81.90162 | 1258 ft | 110 kts | 50° |
| 2026-04-23 21:15 | 41.38670 | -81.89408 | 1148 ft | 101 kts | 46° |
| 2026-04-23 21:16 | 41.39132 | -81.88700 | 1016 ft | 100 kts | 46° |
| 2026-04-23 21:16 | 41.39574 | -81.87995 | 919 ft | 100 kts | 48° |
| 2026-04-23 21:16 | 41.40018 | -81.87308 | 756 ft | 91 kts | 48° |
| 2026-04-23 21:16 | 41.40357 | -81.86803 | 743 ft | 56 kts | 50° |
| 2026-04-23 21:17 | 41.40553 | -81.86455 | 757 ft | 38 kts | 52° |
| 2026-04-23 21:17 | 41.40532 | -81.86209 | 766 ft | 26 kts | 137° |
| 2026-04-23 21:17 | 41.40464 | -81.86137 | 768 ft | 0 kts | 142° |